Home > Products > Valid Products > TAF

000
FTUS43 KARX 011138
TAFLSE
TAF
KLSE 011138Z 0112/0212 12007KT P6SM VCSH OVC013
     FM011500 14008KT 4SM -RA OVC012
     FM012100 15007KT P6SM VCSH OVC020
     FM020300 16004KT 4SM BR OVC012
     FM020600 VRB03KT 2SM BR OVC008
     FM020800 VRB03KT 1/2SM FG OVC004=



000
FTUS43 KARX 011138
TAFRST
TAF
KRST 011138Z 0112/0212 14014KT 4SM -RA OVC006
     FM011400 15012KT 2SM -RA OVC004
     FM011800 16010KT 5SM -RA OVC006
     FM012000 16010KT P6SM VCSH OVC006
     FM020200 17005KT 4SM BR OVC006
     FM020500 16005KT 2SM BR OVC002
     FM020800 VRB04KT 1/2SM FG OVC001=



000
FTUS43 KARX 011138
TAFLSE
TAF
KLSE 011138Z 0112/0212 12007KT P6SM VCSH OVC013
     FM011500 14008KT 4SM -RA OVC012
     FM012100 15007KT P6SM VCSH OVC020
     FM020300 16004KT 4SM BR OVC012
     FM020600 VRB03KT 2SM BR OVC008
     FM020800 VRB03KT 1/2SM FG OVC004=



000
FTUS43 KARX 011138
TAFRST
TAF
KRST 011138Z 0112/0212 14014KT 4SM -RA OVC006
     FM011400 15012KT 2SM -RA OVC004
     FM011800 16010KT 5SM -RA OVC006
     FM012000 16010KT P6SM VCSH OVC006
     FM020200 17005KT 4SM BR OVC006
     FM020500 16005KT 2SM BR OVC002
     FM020800 VRB04KT 1/2SM FG OVC001=



000
FTUS43 KARX 010849 AAA
TAFLSE
TAF AMD
KLSE 010849Z 0109/0206 14008KT P6SM BKN015
     FM011200 14007KT P6SM SCT015 BKN050
     FM011400 14007KT P6SM VCSH BKN050
     FM011700 15009KT 4SM -SHRA BR OVC015
     FM011900 15010KT 6SM -RA BKN020
     FM020200 16004KT P6SM OVC012=



000
FTUS43 KARX 010849 AAA
TAFLSE
TAF AMD
KLSE 010849Z 0109/0206 14008KT P6SM BKN015
     FM011200 14007KT P6SM SCT015 BKN050
     FM011400 14007KT P6SM VCSH BKN050
     FM011700 15009KT 4SM -SHRA BR OVC015
     FM011900 15010KT 6SM -RA BKN020
     FM020200 16004KT P6SM OVC012=



000
FTUS43 KARX 010844 AAA
TAFRST
TAF AMD
KRST 010844Z 0109/0206 14012KT P6SM BKN150
     FM011000 14012KT P6SM VCSH BKN050
     FM011200 14012KT P6SM -SHRA BKN025
     FM011400 15012KT 2SM -RA BR OVC007
     FM012100 17010KT 4SM -RA OVC010
     FM020100 17005KT P6SM OVC008=



000
FTUS43 KARX 010520
TAFRST
TAF
KRST 010520Z 0106/0206 12010KT P6SM BKN150
      TEMPO 0106/0109 BKN015
     FM011000 14010KT P6SM VCSH BKN050
     FM011200 14010KT P6SM -SHRA BKN025
     FM011400 15012KT 2SM -RA BR OVC007
     FM012100 17010KT 4SM -RA OVC010
     FM020100 17005KT P6SM OVC008=



000
FTUS43 KARX 010520
TAFLSE
TAF
KLSE 010520Z 0106/0206 13006KT P6SM BKN150
      TEMPO 0106/0107 SCT015
     FM011500 14006KT P6SM VCSH BKN020
     FM011700 15009KT 4SM -SHRA BR OVC015
     FM011900 15010KT 6SM -RA BKN020
     FM020200 16004KT P6SM OVC012=



000
FTUS43 KARX 010520
TAFLSE
TAF
KLSE 010520Z 0106/0206 13006KT P6SM BKN150
      TEMPO 0106/0107 SCT015
     FM011500 14006KT P6SM VCSH BKN020
     FM011700 15009KT 4SM -SHRA BR OVC015
     FM011900 15010KT 6SM -RA BKN020
     FM020200 16004KT P6SM OVC012=



000
FTUS43 KARX 010520
TAFRST
TAF
KRST 010520Z 0106/0206 12010KT P6SM BKN150
      TEMPO 0106/0109 BKN015
     FM011000 14010KT P6SM VCSH BKN050
     FM011200 14010KT P6SM -SHRA BKN025
     FM011400 15012KT 2SM -RA BR OVC007
     FM012100 17010KT 4SM -RA OVC010
     FM020100 17005KT P6SM OVC008=



000
FTUS43 KARX 010426 AAB
TAFRST
TAF AMD
KRST 010426Z 0104/0124 12010KT P6SM BKN150
      TEMPO 0104/0107 SCT015
     FM010900 14010KT P6SM VCSH BKN050
     FM011100 14010KT P6SM -SHRA BKN025
     FM011300 15012KT 2SM -RA BR OVC007
     FM012000 17010KT 4SM -RA OVC010=



000
FTUS43 KARX 010426 AAB
TAFRST
TAF AMD
KRST 010426Z 0104/0124 12010KT P6SM BKN150
      TEMPO 0104/0107 SCT015
     FM010900 14010KT P6SM VCSH BKN050
     FM011100 14010KT P6SM -SHRA BKN025
     FM011300 15012KT 2SM -RA BR OVC007
     FM012000 17010KT 4SM -RA OVC010=



000
FTUS43 KARX 010421 AAB
TAFLSE
TAF AMD
KLSE 010421Z 0104/0124 13006KT P6SM BKN150
      TEMPO 0104/0107 SCT015
     FM011100 14006KT P6SM VCSH BKN020
     FM011500 15009KT 4SM -SHRA BR OVC015
     FM011900 15010KT 6SM -RA BKN020=



000
FTUS43 KARX 010421 AAB
TAFLSE
TAF AMD
KLSE 010421Z 0104/0124 13006KT P6SM BKN150
      TEMPO 0104/0107 SCT015
     FM011100 14006KT P6SM VCSH BKN020
     FM011500 15009KT 4SM -SHRA BR OVC015
     FM011900 15010KT 6SM -RA BKN020=



000
FTUS43 KARX 010259 AAA
TAFRST
TAF AMD
KRST 010259Z 0103/0124 12010KT P6SM BKN150
      TEMPO 0103/0107 BKN015
     FM010900 14010KT P6SM VCSH BKN050
     FM011100 14010KT P6SM -SHRA BKN025
     FM011300 15012KT 2SM -RA BR OVC007
     FM012000 17010KT 4SM -RA OVC010=



000
FTUS43 KARX 010259 AAA
TAFRST
TAF AMD
KRST 010259Z 0103/0124 12010KT P6SM BKN150
      TEMPO 0103/0107 BKN015
     FM010900 14010KT P6SM VCSH BKN050
     FM011100 14010KT P6SM -SHRA BKN025
     FM011300 15012KT 2SM -RA BR OVC007
     FM012000 17010KT 4SM -RA OVC010=



000
FTUS43 KARX 010257 AAA
TAFLSE
TAF AMD
KLSE 010257Z 0103/0124 13006KT P6SM BKN150
      TEMPO 0103/0107 BKN015
     FM011100 14006KT P6SM VCSH BKN020
     FM011500 15009KT 4SM -SHRA BR OVC015
     FM011900 15010KT 6SM -RA BKN020=



000
FTUS43 KARX 010257 AAA
TAFLSE
TAF AMD
KLSE 010257Z 0103/0124 13006KT P6SM BKN150
      TEMPO 0103/0107 BKN015
     FM011100 14006KT P6SM VCSH BKN020
     FM011500 15009KT 4SM -SHRA BR OVC015
     FM011900 15010KT 6SM -RA BKN020=



000
FTUS43 KARX 302320
TAFRST
TAF
KRST 302320Z 0100/0124 12010KT P6SM BKN150
     FM010900 14010KT P6SM VCSH BKN050
     FM011100 14010KT P6SM -SHRA BKN025
     FM011300 15012KT 2SM -RA BR OVC007
     FM012000 17010KT 4SM -RA OVC010=



000
FTUS43 KARX 302320
TAFLSE
TAF
KLSE 302320Z 0100/0124 13006KT P6SM BKN150
     FM011100 14006KT P6SM VCSH BKN020
     FM011500 15009KT 4SM -SHRA BR OVC015
     FM011900 15010KT 6SM -RA BKN020=



000
FTUS43 KARX 302320
TAFRST
TAF
KRST 302320Z 0100/0124 12010KT P6SM BKN150
     FM010900 14010KT P6SM VCSH BKN050
     FM011100 14010KT P6SM -SHRA BKN025
     FM011300 15012KT 2SM -RA BR OVC007
     FM012000 17010KT 4SM -RA OVC010=



000
FTUS43 KARX 302320
TAFLSE
TAF
KLSE 302320Z 0100/0124 13006KT P6SM BKN150
     FM011100 14006KT P6SM VCSH BKN020
     FM011500 15009KT 4SM -SHRA BR OVC015
     FM011900 15010KT 6SM -RA BKN020=



000
FTUS43 KARX 302052 AAA
TAFRST
TAF AMD
KRST 302052Z 3021/0118 13010KT P6SM FEW060 BKN200
     FM010100 12010KT P6SM BKN150
     FM010900 14010KT P6SM VCSH BKN050
     FM011100 14010KT P6SM -SHRA BKN025
     FM011300 16012KT 2SM -RA BR BKN007=



000
FTUS43 KARX 302052 AAA
TAFRST
TAF AMD
KRST 302052Z 3021/0118 13010KT P6SM FEW060 BKN200
     FM010100 12010KT P6SM BKN150
     FM010900 14010KT P6SM VCSH BKN050
     FM011100 14010KT P6SM -SHRA BKN025
     FM011300 16012KT 2SM -RA BR BKN007=



000
FTUS43 KARX 301720
TAFRST
TAF
KRST 301720Z 3018/0118 13010KT P6SM BKN015
     FM301900 14010G16KT P6SM SCT020 BKN150
     FM010100 12010KT P6SM BKN150
     FM010900 14010KT P6SM VCSH BKN050
     FM011100 14010KT P6SM -SHRA BKN025
     FM011300 16012KT 2SM -RA BR BKN007=



000
FTUS43 KARX 301720
TAFLSE
TAF
KLSE 301720Z 3018/0118 12005KT P6SM BKN015
     FM301930 11007KT P6SM SCT020 BKN150
     FM010100 13006KT P6SM BKN150
     FM011100 14006KT P6SM VCSH BKN020
     FM011600 15009KT P6SM -SHRA OVC015=



000
FTUS43 KARX 301720
TAFLSE
TAF
KLSE 301720Z 3018/0118 12005KT P6SM BKN015
     FM301930 11007KT P6SM SCT020 BKN150
     FM010100 13006KT P6SM BKN150
     FM011100 14006KT P6SM VCSH BKN020
     FM011600 15009KT P6SM -SHRA OVC015=



000
FTUS43 KARX 301720
TAFRST
TAF
KRST 301720Z 3018/0118 13010KT P6SM BKN015
     FM301900 14010G16KT P6SM SCT020 BKN150
     FM010100 12010KT P6SM BKN150
     FM010900 14010KT P6SM VCSH BKN050
     FM011100 14010KT P6SM -SHRA BKN025
     FM011300 16012KT 2SM -RA BR BKN007=



000
FTUS43 KARX 301309 AAB
TAFRST
TAF AMD
KRST 301309Z 3013/0112 10010KT 2SM BR OVC002
      TEMPO 3013/3014 1/2SM FG
     FM301500 12011KT 5SM BR BKN006
     FM301800 12012KT P6SM SCT012
     FM010300 12010KT P6SM BKN150
     FM010900 14010KT P6SM VCSH BKN050
     FM011100 14010KT P6SM -SHRA BKN025=



000
FTUS43 KARX 301309 AAB
TAFRST
TAF AMD
KRST 301309Z 3013/0112 10010KT 2SM BR OVC002
      TEMPO 3013/3014 1/2SM FG
     FM301500 12011KT 5SM BR BKN006
     FM301800 12012KT P6SM SCT012
     FM010300 12010KT P6SM BKN150
     FM010900 14010KT P6SM VCSH BKN050
     FM011100 14010KT P6SM -SHRA BKN025=



000
FTUS43 KARX 301159 AAA
TAFRST
TAF AMD
KRST 301159Z 3012/0112 10010KT 2SM BR OVC002
      TEMPO 3012/3014 1SM BR
     FM301400 12011KT 5SM BR BKN006
     FM301800 12012KT P6SM SCT012
     FM010300 12010KT P6SM BKN150
     FM010900 14010KT P6SM VCSH BKN050
     FM011100 14010KT P6SM -SHRA BKN025=



000
FTUS43 KARX 301159 AAA
TAFRST
TAF AMD
KRST 301159Z 3012/0112 10010KT 2SM BR OVC002
      TEMPO 3012/3014 1SM BR
     FM301400 12011KT 5SM BR BKN006
     FM301800 12012KT P6SM SCT012
     FM010300 12010KT P6SM BKN150
     FM010900 14010KT P6SM VCSH BKN050
     FM011100 14010KT P6SM -SHRA BKN025=



000
FTUS43 KARX 301129
TAFLSE
TAF
KLSE 301129Z 3012/0112 09005KT P6SM OVC015
     FM301800 12008KT P6SM SCT025
     FM010100 13006KT P6SM BKN150
     FM011100 14006KT P6SM VCSH BKN050=



000
FTUS43 KARX 301129
TAFRST
TAF
KRST 301129Z 3012/0112 08008KT P6SM OVC003
     FM301800 12010KT P6SM SCT012
     FM010300 12010KT P6SM BKN150
     FM010900 14010KT P6SM VCSH BKN050
     FM011100 14010KT P6SM -SHRA BKN025=



000
FTUS43 KARX 301129
TAFLSE
TAF
KLSE 301129Z 3012/0112 09005KT P6SM OVC015
     FM301800 12008KT P6SM SCT025
     FM010100 13006KT P6SM BKN150
     FM011100 14006KT P6SM VCSH BKN050=



000
FTUS43 KARX 301129
TAFRST
TAF
KRST 301129Z 3012/0112 08008KT P6SM OVC003
     FM301800 12010KT P6SM SCT012
     FM010300 12010KT P6SM BKN150
     FM010900 14010KT P6SM VCSH BKN050
     FM011100 14010KT P6SM -SHRA BKN025=



000
FTUS43 KARX 300545 CCA
TAFLSE
TAF COR
KLSE 300545Z 3006/0106 03006KT P6SM SKC
     FM300700 04005KT P6SM OVC015
     FM302000 10009KT P6SM SCT025 BKN150=



000
FTUS43 KARX 300545 CCA
TAFLSE
TAF COR
KLSE 300545Z 3006/0106 03006KT P6SM SKC
     FM300700 04005KT P6SM OVC015
     FM302000 10009KT P6SM SCT025 BKN150=



000
FTUS43 KARX 300520
TAFLSE
TAF
KLSE 300520Z 3006/0106 02005KT P6SM SKC
     FM300800 04005KT P6SM OVC015
     FM302000 10009KT P6SM SCT025 BKN150=



000
FTUS43 KARX 300520
TAFRST
TAF
KRST 300520Z 3006/0106 04007KT P6SM SKC
     FM300800 08007KT P6SM OVC009
     FM301900 11010KT P6SM SCT015 BKN150=



000
FTUS43 KARX 300520
TAFRST
TAF
KRST 300520Z 3006/0106 04007KT P6SM SKC
     FM300800 08007KT P6SM OVC009
     FM301900 11010KT P6SM SCT015 BKN150=



000
FTUS43 KARX 300520
TAFLSE
TAF
KLSE 300520Z 3006/0106 02005KT P6SM SKC
     FM300800 04005KT P6SM OVC015
     FM302000 10009KT P6SM SCT025 BKN150=



000
FTUS43 KARX 300233 AAA
TAFRST
TAF AMD
KRST 300233Z 3003/3024 04007KT P6SM SKC
     FM300800 08007KT P6SM OVC012
     FM301600 11010KT P6SM SCT025=



000
FTUS43 KARX 300232 CCA
TAFLSE
TAF COR
KLSE 300232Z 3002/3024 02005KT P6SM SKC
     FM300800 04005KT P6SM OVC015
     FM301800 10007KT P6SM SCT025=



000
FTUS43 KARX 300232 CCA
TAFLSE
TAF COR
KLSE 300232Z 3002/3024 02005KT P6SM SKC
     FM300800 04005KT P6SM OVC015
     FM301800 10007KT P6SM SCT025=



000
FTUS43 KARX 292320
TAFRST
TAF
KRST 292320Z 3000/3024 03009KT P6SM BKN019
     FM300200 09007KT P6SM SKC
     FM301400 11010KT P6SM BKN250=



000
FTUS43 KARX 292320
TAFRST
TAF
KRST 292320Z 3000/3024 03009KT P6SM BKN019
     FM300200 09007KT P6SM SKC
     FM301400 11010KT P6SM BKN250=



000
FTUS43 KARX 292320
TAFLSE
TAF
KLSE 292320Z 3000/3024 02007KT P6SM BKN025
     FM300200 04005KT P6SM SKC
     FM301400 10007KT P6SM SCT250=



000
FTUS43 KARX 292320
TAFLSE
TAF
KLSE 292320Z 3000/3024 02007KT P6SM BKN025
     FM300200 04005KT P6SM SKC
     FM301400 10007KT P6SM SCT250=



000
FTUS43 KARX 292027 AAB
TAFRST
TAF AMD
KRST 292027Z 2920/3018 02011KT P6SM SCT015
     FM292300 04008KT P6SM BKN015
     FM300300 09007KT P6SM BKN015
     FM301400 11010KT P6SM SCT015 BKN040=



000
FTUS43 KARX 291859 AAA
TAFRST
TAF AMD
KRST 291859Z 2919/3018 02011KT P6SM BKN014
     FM300300 07007KT P6SM BKN015
     FM301400 11010KT P6SM SCT015 BKN040=



000
FTUS43 KARX 291859 AAA
TAFRST
TAF AMD
KRST 291859Z 2919/3018 02011KT P6SM BKN014
     FM300300 07007KT P6SM BKN015
     FM301400 11010KT P6SM SCT015 BKN040=



000
FTUS43 KARX 291720
TAFRST
TAF
KRST 291720Z 2918/3018 02010KT P6SM OVC006
      TEMPO 2918/2919 3SM BR OVC003
     FM292000 02009KT P6SM BKN012
     FM300300 07007KT P6SM BKN015
     FM301400 11010KT P6SM SCT015 BKN040=



000
FTUS43 KARX 291720
TAFLSE
TAF
KLSE 291720Z 2918/3018 35010KT P6SM OVC012
     FM291900 35010KT P6SM VCSH OVC015
      TEMPO 2920/2922 BKN025
     FM292200 02007KT P6SM BKN025
     FM300300 05005KT P6SM BKN020
     FM301400 10006KT P6SM SCT020=



000
FTUS43 KARX 291720
TAFRST
TAF
KRST 291720Z 2918/3018 02010KT P6SM OVC006
      TEMPO 2918/2919 3SM BR OVC003
     FM292000 02009KT P6SM BKN012
     FM300300 07007KT P6SM BKN015
     FM301400 11010KT P6SM SCT015 BKN040=



000
FTUS43 KARX 291720
TAFLSE
TAF
KLSE 291720Z 2918/3018 35010KT P6SM OVC012
     FM291900 35010KT P6SM VCSH OVC015
      TEMPO 2920/2922 BKN025
     FM292200 02007KT P6SM BKN025
     FM300300 05005KT P6SM BKN020
     FM301400 10006KT P6SM SCT020=



000
FTUS43 KARX 291536 AAC
TAFRST
TAF AMD
KRST 291536Z 2916/3012 36009KT 2SM BR BKN003
     FM291630 36008KT 4SM BR BKN005
     FM291800 36008KT P6SM BKN008
     FM300300 06007KT P6SM BKN009=



000
FTUS43 KARX 291534 AAB
TAFLSE
TAF AMD
KLSE 291534Z 2916/3012 33008KT P6SM SCT010
     FM291600 33008KT P6SM BKN010
     FM291800 35008KT P6SM BKN015
     FM300000 02005KT P6SM BKN020
     FM300300 03005KT P6SM BKN015=



000
FTUS43 KARX 291534 AAB
TAFLSE
TAF AMD
KLSE 291534Z 2916/3012 33008KT P6SM SCT010
     FM291600 33008KT P6SM BKN010
     FM291800 35008KT P6SM BKN015
     FM300000 02005KT P6SM BKN020
     FM300300 03005KT P6SM BKN015=



000
FTUS43 KARX 291334 AAB
TAFRST
TAF AMD
KRST 291334Z 2914/3012 36009KT 2SM BR BKN002
     FM291500 36008KT P6SM BKN009
     FM300300 06007KT P6SM BKN009=



000
FTUS43 KARX 291334 AAB
TAFRST
TAF AMD
KRST 291334Z 2914/3012 36009KT 2SM BR BKN002
     FM291500 36008KT P6SM BKN009
     FM300300 06007KT P6SM BKN009=



000
FTUS43 KARX 291317 AAA
TAFLSE
TAF AMD
KLSE 291317Z 2913/3012 16005KT 3SM BR SCT002 BKN100
     FM291500 33008KT 5SM BR BKN008
     FM291800 35008KT P6SM BKN015
     FM300000 02005KT P6SM BKN020
     FM300300 03005KT P6SM BKN015=



000
FTUS43 KARX 291317 AAA
TAFLSE
TAF AMD
KLSE 291317Z 2913/3012 16005KT 3SM BR SCT002 BKN100
     FM291500 33008KT 5SM BR BKN008
     FM291800 35008KT P6SM BKN015
     FM300000 02005KT P6SM BKN020
     FM300300 03005KT P6SM BKN015=



000
FTUS43 KARX 291315 AAA
TAFRST
TAF AMD
KRST 291315Z 2913/3012 34010KT 4SM BR BKN005
     FM291700 36008KT P6SM BKN012
     FM300300 06007KT P6SM BKN009=



000
FTUS43 KARX 291315 AAA
TAFRST
TAF AMD
KRST 291315Z 2913/3012 34010KT 4SM BR BKN005
     FM291700 36008KT P6SM BKN012
     FM300300 06007KT P6SM BKN009=



000
FTUS43 KARX 291128
TAFLSE
TAF
KLSE 291128Z 2912/3012 32006KT 2SM BR BKN002
     FM291500 33008KT 5SM BR BKN008
     FM291800 35008KT P6SM BKN015
     FM300000 02005KT P6SM BKN020
     FM300300 03005KT P6SM BKN015=



000
FTUS43 KARX 291128
TAFRST
TAF
KRST 291128Z 2912/3012 30007KT P6SM BKN060
     FM291400 34010KT P6SM BKN008
     FM291700 36008KT P6SM BKN012
     FM300300 06007KT P6SM BKN009=



000
FTUS43 KARX 291128
TAFRST
TAF
KRST 291128Z 2912/3012 30007KT P6SM BKN060
     FM291400 34010KT P6SM BKN008
     FM291700 36008KT P6SM BKN012
     FM300300 06007KT P6SM BKN009=



000
FTUS43 KARX 291128
TAFLSE
TAF
KLSE 291128Z 2912/3012 32006KT 2SM BR BKN002
     FM291500 33008KT 5SM BR BKN008
     FM291800 35008KT P6SM BKN015
     FM300000 02005KT P6SM BKN020
     FM300300 03005KT P6SM BKN015=



000
FTUS43 KARX 290929 AAA
TAFLSE
TAF AMD
KLSE 290929Z 2909/3006 18006KT 1/2SM FG OVC002
     FM291400 32006KT 3SM BR BKN003
     FM291600 33008KT 5SM BR BKN008
     FM291800 35008KT P6SM BKN015
     FM300000 02005KT P6SM OVC020=



000
FTUS43 KARX 290929 AAA
TAFLSE
TAF AMD
KLSE 290929Z 2909/3006 18006KT 1/2SM FG OVC002
     FM291400 32006KT 3SM BR BKN003
     FM291600 33008KT 5SM BR BKN008
     FM291800 35008KT P6SM BKN015
     FM300000 02005KT P6SM OVC020=



000
FTUS43 KARX 290520
TAFRST
TAF
KRST 290520Z 2906/3006 22006KT 6SM BR SKC
     FM291130 34009KT P6SM BKN045
     FM291500 34012KT P6SM BKN020
     FM300000 04007KT P6SM OVC012=



000
FTUS43 KARX 290520
TAFLSE
TAF
KLSE 290520Z 2906/3006 14004KT 6SM BR SKC
     FM290700 VRB03KT 5SM BR SCT003
     FM290800 VRB03KT 2SM BR BKN003
     FM291200 34009KT P6SM BKN050
     FM291600 01009KT P6SM BKN025
     FM300000 02005KT P6SM OVC020=



000
FTUS43 KARX 290520
TAFRST
TAF
KRST 290520Z 2906/3006 22006KT 6SM BR SKC
     FM291130 34009KT P6SM BKN045
     FM291500 34012KT P6SM BKN020
     FM300000 04007KT P6SM OVC012=



000
FTUS43 KARX 290520
TAFLSE
TAF
KLSE 290520Z 2906/3006 14004KT 6SM BR SKC
     FM290700 VRB03KT 5SM BR SCT003
     FM290800 VRB03KT 2SM BR BKN003
     FM291200 34009KT P6SM BKN050
     FM291600 01009KT P6SM BKN025
     FM300000 02005KT P6SM OVC020=



000
FTUS43 KARX 282329
TAFLSE
TAF
KLSE 282329Z 2900/2924 18004KT P6SM SKC
     FM290900 VRB03KT 5SM BR SCT003
     FM291430 30006KT P6SM BKN050
     FM291900 01009KT P6SM BKN020=



000
FTUS43 KARX 282329
TAFRST
TAF
KRST 282329Z 2900/2924 22006KT P6SM SKC
     FM291300 34009KT P6SM BKN045
     FM291800 03012KT P6SM BKN015=



000
FTUS43 KARX 282329
TAFRST
TAF
KRST 282329Z 2900/2924 22006KT P6SM SKC
     FM291300 34009KT P6SM BKN045
     FM291800 03012KT P6SM BKN015=



000
FTUS43 KARX 282329
TAFLSE
TAF
KLSE 282329Z 2900/2924 18004KT P6SM SKC
     FM290900 VRB03KT 5SM BR SCT003
     FM291430 30006KT P6SM BKN050
     FM291900 01009KT P6SM BKN020=



000
FTUS43 KARX 281720
TAFRST
TAF
KRST 281720Z 2818/2918 20006KT P6SM SCT045
     FM282300 22006KT P6SM SKC
     FM291000 27006KT 6SM BR SKC
     FM291400 34006KT P6SM BKN045=



000
FTUS43 KARX 281720
TAFLSE
TAF
KLSE 281720Z 2818/2918 18006KT P6SM FEW050
     FM282300 18004KT P6SM SKC
     FM290900 VRB03KT 5SM BR SCT003
     FM291430 30006KT P6SM BKN050=



000
FTUS43 KARX 281720
TAFLSE
TAF
KLSE 281720Z 2818/2918 18006KT P6SM FEW050
     FM282300 18004KT P6SM SKC
     FM290900 VRB03KT 5SM BR SCT003
     FM291430 30006KT P6SM BKN050=



000
FTUS43 KARX 281720
TAFRST
TAF
KRST 281720Z 2818/2918 20006KT P6SM SCT045
     FM282300 22006KT P6SM SKC
     FM291000 27006KT P6SM SKC
     FM291400 34006KT P6SM BKN045=



000
FTUS43 KARX 281720
TAFRST
TAF
KRST 281720Z 2818/2918 20006KT P6SM SCT045
     FM282300 22006KT P6SM SKC
     FM291000 27006KT 6SM BR SKC
     FM291400 34006KT P6SM BKN045=



000
FTUS43 KARX 281422 AAB
TAFLSE
TAF AMD
KLSE 281422Z 2814/2912 15004KT P6SM SKC
     FM281630 19006KT P6SM SCT045
     FM282300 17004KT P6SM SKC
     FM290900 VRB03KT 5SM BR SCT003=



000
FTUS43 KARX 281422 AAB
TAFLSE
TAF AMD
KLSE 281422Z 2814/2912 15004KT P6SM SKC
     FM281630 19006KT P6SM SCT045
     FM282300 17004KT P6SM SKC
     FM290900 VRB03KT 5SM BR SCT003=



    US Dept of Commerce
    National Oceanic and Atmospheric Administration
    National Weather Service
    1325 East West Highway
    Silver Spring, MD 20910
    Page Author: NWS Internet Services Team
Disclaimer
Information Quality
Credits
Glossary
Privacy Policy
Freedom of Information Act (FOIA)
About Us
Career Opportunities